createdAt,value
2023-01-17T00:02:14.485Z,15.43
2023-01-17T00:04:59.858Z,14.97
2023-01-17T00:07:46.303Z,14.03
2023-01-17T00:10:21.982Z,15.50
2023-01-17T00:12:51.890Z,15.10
2023-01-17T00:15:23.699Z,14.03
2023-01-17T00:17:51.472Z,14.30
2023-01-17T00:20:39.157Z,14.77
2023-01-17T00:23:43.492Z,15.23
2023-01-17T00:26:16.981Z,14.67
2023-01-17T00:28:45.168Z,16.53
2023-01-17T00:31:13.445Z,13.40
2023-01-17T00:33:40.373Z,16.93
2023-01-17T00:36:08.401Z,14.67
2023-01-17T00:38:37.753Z,18.77
2023-01-17T00:41:14.233Z,17.27
2023-01-17T00:44:00.199Z,19.07
2023-01-17T00:46:45.581Z,19.00
2023-01-17T00:49:30.912Z,19.37
2023-01-17T00:52:16.114Z,19.57
2023-01-17T00:55:01.355Z,18.93
2023-01-17T00:57:46.714Z,19.90
2023-01-17T01:00:32.474Z,21.73
2023-01-17T01:03:17.807Z,21.77
2023-01-17T01:06:03.053Z,22.33
2023-01-17T01:08:49.019Z,21.83
2023-01-17T01:11:38.346Z,20.30
2023-01-17T01:14:25.376Z,19.67
2023-01-17T01:17:10.716Z,21.20
2023-01-17T01:19:56.232Z,22.33
2023-01-17T01:22:41.537Z,21.73
2023-01-17T01:25:27.257Z,20.43
2023-01-17T01:28:21.011Z,19.73
2023-01-17T01:31:06.262Z,20.20
2023-01-17T01:33:33.037Z,20.00
2023-01-17T01:35:59.854Z,20.90
2023-01-17T01:38:26.734Z,19.13
2023-01-17T01:40:56.715Z,20.03
2023-01-17T01:43:43.772Z,20.53
2023-01-17T01:46:15.567Z,18.23
2023-01-17T01:48:59.044Z,17.47
2023-01-17T01:51:40.600Z,18.87
2023-01-17T01:54:13.955Z,21.57
2023-01-17T01:56:41.616Z,18.90
2023-01-17T01:59:11.318Z,18.87
2023-01-17T02:01:38.359Z,19.70
2023-01-17T02:04:10.912Z,20.97
2023-01-17T02:06:47.973Z,21.23
2023-01-17T02:09:17.018Z,19.03
2023-01-17T02:11:44.522Z,18.70
2023-01-17T02:14:22.392Z,19.07
2023-01-17T02:17:01.144Z,19.30
2023-01-17T02:19:40.476Z,19.70
2023-01-17T02:22:21.888Z,19.03
2023-01-17T02:25:10.513Z,19.10
2023-01-17T02:28:21.088Z,18.80
2023-01-17T02:30:59.086Z,19.47
2023-01-17T02:33:50.975Z,17.27
2023-01-17T02:36:36.717Z,19.20
2023-01-17T02:39:21.554Z,18.77
2023-01-17T02:41:54.755Z,22.80
2023-01-17T02:44:22.809Z,20.17
2023-01-17T02:46:55.418Z,20.07
2023-01-17T02:49:26.726Z,19.27
2023-01-17T02:52:30.175Z,19.53
2023-01-17T02:55:31.441Z,19.47
2023-01-17T02:58:41.186Z,18.73
2023-01-17T03:01:30.338Z,19.90
2023-01-17T03:04:23.561Z,20.50
2023-01-17T03:07:10.310Z,19.47
2023-01-17T03:09:38.556Z,19.87
2023-01-17T03:12:06.324Z,18.83
2023-01-17T03:14:33.113Z,21.23
2023-01-17T03:16:59.914Z,21.33
2023-01-17T03:19:26.671Z,20.53
2023-01-17T03:21:53.953Z,19.17
2023-01-17T03:24:20.739Z,17.37
2023-01-17T03:26:47.971Z,20.07
2023-01-17T03:29:16.604Z,19.83
2023-01-17T03:31:43.422Z,19.63
2023-01-17T03:34:10.219Z,17.40
2023-01-17T03:36:37.009Z,16.70
2023-01-17T03:39:04.106Z,18.70
2023-01-17T03:41:30.925Z,17.50
2023-01-17T03:43:57.708Z,18.77
2023-01-17T03:46:28.630Z,17.23
2023-01-17T03:48:55.443Z,15.97
2023-01-17T03:51:22.345Z,16.07
2023-01-17T03:53:50.089Z,16.53
2023-01-17T03:56:16.938Z,18.50
2023-01-17T03:58:43.809Z,19.20
2023-01-17T04:01:11.216Z,16.93
2023-01-17T04:03:38.116Z,16.90
2023-01-17T04:06:05.207Z,17.43
2023-01-17T04:08:32.033Z,18.53
2023-01-17T04:10:58.855Z,17.03
2023-01-17T04:13:25.873Z,17.33
2023-01-17T04:15:52.745Z,17.23
2023-01-17T04:18:21.025Z,15.87
2023-01-17T04:20:47.857Z,16.57
2023-01-17T04:23:14.706Z,16.10
2023-01-17T04:25:42.917Z,17.70
2023-01-17T04:28:10.853Z,15.27
2023-01-17T04:30:37.767Z,15.33
2023-01-17T04:33:04.671Z,15.47
2023-01-17T04:35:33.466Z,16.80
2023-01-17T04:38:00.778Z,17.37
2023-01-17T04:40:29.707Z,16.77
2023-01-17T04:42:59.668Z,15.83
2023-01-17T04:45:26.617Z,15.60
2023-01-17T04:47:53.370Z,15.87
2023-01-17T04:50:20.218Z,15.73
2023-01-17T04:52:47.177Z,16.23
2023-01-17T04:55:14.050Z,17.03
2023-01-17T04:57:40.973Z,17.67
2023-01-17T05:00:09.129Z,17.40
2023-01-17T05:02:36.203Z,17.23
2023-01-17T05:05:03.074Z,17.27
2023-01-17T05:07:29.877Z,18.30
2023-01-17T05:09:56.801Z,19.17
2023-01-17T05:12:23.903Z,18.20
2023-01-17T05:14:51.491Z,17.97
2023-01-17T05:17:18.356Z,17.43
2023-01-17T05:19:46.060Z,18.20
2023-01-17T05:22:16.263Z,17.13
2023-01-17T05:24:47.719Z,18.40
2023-01-17T05:27:15.560Z,19.17
2023-01-17T05:29:42.435Z,18.10
2023-01-17T05:32:09.348Z,17.87
2023-01-17T05:34:36.213Z,19.23
2023-01-17T05:37:03.117Z,16.43
2023-01-17T05:39:31.021Z,16.70
2023-01-17T05:41:58.259Z,16.23
2023-01-17T05:44:25.332Z,17.33
2023-01-17T05:46:52.158Z,19.53
2023-01-17T05:49:19.020Z,18.03
2023-01-17T05:51:45.802Z,18.20
2023-01-17T05:54:12.587Z,17.47
2023-01-17T05:56:39.462Z,16.43
2023-01-17T05:59:06.299Z,15.90
2023-01-17T06:01:33.068Z,17.50
2023-01-17T06:03:59.878Z,17.33
2023-01-17T06:06:26.674Z,17.20
2023-01-17T06:08:53.453Z,15.73
2023-01-17T06:11:20.272Z,16.90
2023-01-17T06:13:49.116Z,16.70
2023-01-17T06:16:16.215Z,18.17
2023-01-17T06:18:43.070Z,17.60
2023-01-17T06:21:10.296Z,17.40
2023-01-17T06:23:37.275Z,15.37
2023-01-17T06:26:04.915Z,18.57
2023-01-17T06:28:31.777Z,17.63
2023-01-17T06:30:59.951Z,16.57
2023-01-17T06:33:27.035Z,16.17
2023-01-17T06:35:54.647Z,17.43
2023-01-17T06:38:21.890Z,19.00
2023-01-17T06:40:51.846Z,16.20
2023-01-17T06:43:18.605Z,19.13
2023-01-17T06:45:45.403Z,17.83
2023-01-17T06:48:12.415Z,18.13
2023-01-17T06:50:39.254Z,16.87
2023-01-17T06:53:08.118Z,18.70
2023-01-17T06:55:35.332Z,18.37
2023-01-17T06:58:05.407Z,15.13
2023-01-17T07:00:35.173Z,16.50
2023-01-17T07:03:02.451Z,19.20
2023-01-17T07:05:49.699Z,18.33
2023-01-17T07:08:37.135Z,15.67
2023-01-17T07:11:10.993Z,16.40
2023-01-17T07:13:38.568Z,15.17
2023-01-17T07:16:06.656Z,18.77
2023-01-17T07:18:34.254Z,14.37
2023-01-17T07:21:01.391Z,15.27
2023-01-17T07:23:28.192Z,19.37
2023-01-17T07:25:59.805Z,17.40
2023-01-17T07:28:28.383Z,13.90
2023-01-17T07:30:55.464Z,28.47
2023-01-17T07:33:22.471Z,16.50
2023-01-17T07:35:49.284Z,35.27
2023-01-17T07:38:18.251Z,22.70
2023-01-17T07:40:46.201Z,16.23
2023-01-17T07:43:14.204Z,18.27
2023-01-17T07:45:44.861Z,37.23
2023-01-17T07:48:12.608Z,17.23
2023-01-17T07:50:39.691Z,14.73
2023-01-17T07:53:06.537Z,13.47
2023-01-17T07:55:33.576Z,14.07
2023-01-17T07:58:02.864Z,15.90
2023-01-17T08:00:30.164Z,17.90
2023-01-17T08:03:01.282Z,13.03
2023-01-17T08:05:30.891Z,14.03
2023-01-17T08:07:57.698Z,16.90
2023-01-17T08:10:24.581Z,13.70
2023-01-17T08:12:51.427Z,17.27
2023-01-17T08:15:18.499Z,15.90
2023-01-17T08:17:47.133Z,11.40
2023-01-17T08:20:14.461Z,15.67
2023-01-17T08:22:41.287Z,13.07
2023-01-17T08:25:08.696Z,16.13
2023-01-17T08:27:36.315Z,12.03
2023-01-17T08:30:03.588Z,11.73
2023-01-17T08:32:30.453Z,11.27
2023-01-17T08:34:57.779Z,11.33
2023-01-17T08:37:24.842Z,14.67
2023-01-17T08:39:51.629Z,10.53
2023-01-17T08:42:18.789Z,11.50
2023-01-17T08:44:45.573Z,11.50
2023-01-17T08:47:12.446Z,10.43
2023-01-17T08:49:39.261Z,11.07
2023-01-17T08:52:06.478Z,13.00
2023-01-17T08:54:33.553Z,10.07
2023-01-17T08:57:01.028Z,10.97
2023-01-17T08:59:27.787Z,12.57
2023-01-17T09:01:55.405Z,10.80
2023-01-17T09:04:22.322Z,11.27
2023-01-17T09:06:49.371Z,11.17
2023-01-17T09:09:17.339Z,11.57
2023-01-17T09:11:44.169Z,18.67
2023-01-17T09:14:14.561Z,11.33
2023-01-17T09:16:41.402Z,9.93
2023-01-17T09:19:08.912Z,10.40
2023-01-17T09:21:35.713Z,9.73
2023-01-17T09:24:02.559Z,8.53
2023-01-17T09:26:30.161Z,10.23
2023-01-17T09:28:58.579Z,8.77
2023-01-17T09:31:27.208Z,9.97
2023-01-17T09:33:55.890Z,9.60
2023-01-17T09:36:24.039Z,11.40
2023-01-17T09:38:57.715Z,11.40
2023-01-17T09:41:29.797Z,9.60
2023-01-17T09:44:02.855Z,11.83
2023-01-17T09:46:33.650Z,10.43
2023-01-17T09:49:06.953Z,9.87
2023-01-17T09:51:34.040Z,10.13
2023-01-17T09:54:02.715Z,10.33
2023-01-17T09:56:35.537Z,11.87
2023-01-17T09:59:33.011Z,12.23
2023-01-17T10:02:30.371Z,12.93
2023-01-17T10:05:14.648Z,10.67
2023-01-17T10:08:05.673Z,13.67
2023-01-17T10:10:53.943Z,11.23
2023-01-17T10:13:41.954Z,13.83
2023-01-17T10:16:36.228Z,10.70
2023-01-17T10:19:23.619Z,11.00
2023-01-17T10:22:02.440Z,12.23
2023-01-17T10:24:41.170Z,11.57
2023-01-17T10:27:23.571Z,12.63
2023-01-17T10:29:51.523Z,12.47
2023-01-17T10:32:22.073Z,11.07
2023-01-17T10:34:53.127Z,12.43
2023-01-17T10:37:25.731Z,13.53
2023-01-17T10:39:56.009Z,10.43
2023-01-17T10:42:32.145Z,23.17
2023-01-17T10:45:16.188Z,14.53
2023-01-17T10:47:48.202Z,13.60
2023-01-17T10:50:15.379Z,15.97
2023-01-17T10:52:56.643Z,11.63
2023-01-17T10:55:43.992Z,12.30
2023-01-17T10:58:13.998Z,11.90
2023-01-17T11:01:00.926Z,12.33
2023-01-17T11:03:28.696Z,13.23
2023-01-17T11:06:14.823Z,11.30
2023-01-17T11:08:52.551Z,11.83
2023-01-17T11:11:23.283Z,13.47
2023-01-17T11:13:52.034Z,15.63
2023-01-17T11:16:22.816Z,15.03
2023-01-17T11:19:14.725Z,12.27
2023-01-17T11:22:01.773Z,14.57
2023-01-17T11:24:35.298Z,14.70
2023-01-17T11:27:05.434Z,11.27
2023-01-17T11:29:37.536Z,14.17
2023-01-17T11:32:22.594Z,14.17
2023-01-17T11:35:09.652Z,12.87
2023-01-17T11:37:36.987Z,14.03
2023-01-17T11:40:21.408Z,13.40
2023-01-17T11:43:25.471Z,14.37
2023-01-17T11:46:14.601Z,15.20
2023-01-17T11:48:41.533Z,15.93
2023-01-17T11:51:33.781Z,14.87
2023-01-17T11:54:15.605Z,19.00
2023-01-17T11:56:46.124Z,16.97
2023-01-17T11:59:30.404Z,14.40
2023-01-17T12:02:24.355Z,12.97
2023-01-17T12:05:10.126Z,13.50
2023-01-17T12:07:49.102Z,13.73
2023-01-17T12:10:43.602Z,15.53
2023-01-17T12:13:50.535Z,15.03
2023-01-17T12:16:31.764Z,14.70
2023-01-17T12:19:04.452Z,17.23
2023-01-17T12:21:40.323Z,16.43
2023-01-17T12:24:46.380Z,16.03
2023-01-17T12:27:42.576Z,14.67
2023-01-17T12:30:27.730Z,15.47
2023-01-17T12:33:09.690Z,14.20
2023-01-17T12:35:43.982Z,15.07
2023-01-17T12:38:27.471Z,15.73
2023-01-17T12:41:23.419Z,15.97
2023-01-17T12:43:55.448Z,16.13
2023-01-17T12:46:30.355Z,17.50
2023-01-17T12:49:04.886Z,13.37
2023-01-17T12:51:38.446Z,14.87
2023-01-17T12:54:24.463Z,14.83
2023-01-17T12:56:58.850Z,17.47
2023-01-17T12:59:48.731Z,17.43
2023-01-17T13:02:21.195Z,17.73
2023-01-17T13:04:59.219Z,16.53
2023-01-17T13:07:50.045Z,18.20
2023-01-17T13:10:22.777Z,18.13
2023-01-17T13:12:50.776Z,18.17
2023-01-17T13:15:23.230Z,15.87
2023-01-17T13:17:55.830Z,16.27
2023-01-17T13:20:33.394Z,17.20
2023-01-17T13:23:16.927Z,16.03
2023-01-17T13:25:50.374Z,14.53
2023-01-17T13:28:23.526Z,15.83
2023-01-17T13:31:08.350Z,17.17
2023-01-17T13:34:05.996Z,20.43
2023-01-17T13:37:08.674Z,15.40
2023-01-17T13:40:03.210Z,16.87
2023-01-17T13:42:53.531Z,15.80
2023-01-17T13:45:24.254Z,13.83
2023-01-17T13:47:52.557Z,13.37
2023-01-17T13:50:38.197Z,16.27
2023-01-17T13:53:36.957Z,14.37
2023-01-17T13:56:18.825Z,14.30
2023-01-17T13:58:54.920Z,15.50
2023-01-17T14:01:25.069Z,14.13
2023-01-17T14:03:52.048Z,16.93
2023-01-17T14:06:44.775Z,11.70
2023-01-17T14:09:31.010Z,14.17
2023-01-17T14:11:59.397Z,15.07
2023-01-17T14:14:44.430Z,13.20
2023-01-17T14:17:20.615Z,14.10
2023-01-17T14:20:01.960Z,15.33
2023-01-17T14:22:32.813Z,14.73
2023-01-17T14:25:11.803Z,14.70
2023-01-17T14:27:50.267Z,14.87
2023-01-17T14:30:20.146Z,14.10
2023-01-17T14:32:59.122Z,15.67
2023-01-17T14:35:57.553Z,16.07
2023-01-17T14:38:30.056Z,15.83
2023-01-17T14:41:00.663Z,14.87
2023-01-17T14:43:32.307Z,16.63
2023-01-17T14:46:22.589Z,16.33
2023-01-17T14:48:50.868Z,14.93
2023-01-17T14:51:21.407Z,14.73
2023-01-17T14:53:59.554Z,16.90
2023-01-17T14:56:28.206Z,14.60
2023-01-17T14:59:19.648Z,19.40
2023-01-17T15:02:07.237Z,16.70
2023-01-17T15:04:39.821Z,17.83
2023-01-17T15:07:07.772Z,19.53
2023-01-17T15:09:38.570Z,19.07
2023-01-17T15:12:14.466Z,18.20
2023-01-17T15:14:45.761Z,17.80
2023-01-17T15:17:19.837Z,16.93
2023-01-17T15:20:03.406Z,18.60
2023-01-17T15:22:30.841Z,17.53
2023-01-17T15:24:58.986Z,19.00
2023-01-17T15:27:26.299Z,20.97
2023-01-17T15:29:54.058Z,18.87
2023-01-17T15:32:23.898Z,18.13
2023-01-17T15:34:52.347Z,19.07
2023-01-17T15:37:34.841Z,19.03
2023-01-17T15:40:19.058Z,17.93
2023-01-17T15:42:58.327Z,17.17
2023-01-17T15:45:33.322Z,20.10
2023-01-17T15:48:40.595Z,19.50
2023-01-17T15:51:09.171Z,18.83
2023-01-17T15:53:39.047Z,19.27
2023-01-17T15:56:32.898Z,18.97
2023-01-17T15:59:27.346Z,20.37
2023-01-17T16:01:58.134Z,21.00
2023-01-17T16:04:37.266Z,21.80
2023-01-17T16:07:34.090Z,22.03
2023-01-17T16:10:36.303Z,19.50
2023-01-17T16:13:05.778Z,22.43
2023-01-17T16:15:35.326Z,21.50
2023-01-17T16:18:06.766Z,23.43
2023-01-17T16:20:41.517Z,21.77
2023-01-17T16:23:09.896Z,20.73
2023-01-17T16:25:36.741Z,24.43
2023-01-17T16:28:04.101Z,23.53
2023-01-17T16:30:31.668Z,24.50
2023-01-17T16:32:59.303Z,27.33
2023-01-17T16:35:31.676Z,26.47
2023-01-17T16:38:05.092Z,23.53
2023-01-17T16:40:38.160Z,24.67
2023-01-17T16:43:05.079Z,26.10
2023-01-17T16:45:38.998Z,26.53
2023-01-17T16:48:06.163Z,24.73
2023-01-17T16:50:32.995Z,26.23
2023-01-17T16:52:59.965Z,26.90
2023-01-17T16:55:27.142Z,27.40
2023-01-17T16:57:58.192Z,23.43
2023-01-17T17:00:26.830Z,24.37
2023-01-17T17:02:54.268Z,30.07
2023-01-17T17:05:21.193Z,26.07
2023-01-17T17:07:51.565Z,26.13
2023-01-17T17:10:20.578Z,28.40
2023-01-17T17:12:47.659Z,30.10
2023-01-17T17:15:14.661Z,32.60
2023-01-17T17:17:43.337Z,28.77
2023-01-17T17:20:12.796Z,28.97
2023-01-17T17:22:43.006Z,29.57
2023-01-17T17:25:10.435Z,25.20
2023-01-17T17:27:37.656Z,27.43
2023-01-17T17:30:05.085Z,27.43
2023-01-17T17:32:32.384Z,26.37
2023-01-17T17:34:59.182Z,26.13
2023-01-17T17:37:28.836Z,23.70
2023-01-17T17:39:57.004Z,23.30
2023-01-17T17:42:23.982Z,25.17
2023-01-17T17:44:50.882Z,26.80
2023-01-17T17:47:17.941Z,25.17
2023-01-17T17:49:44.911Z,26.87
2023-01-17T17:52:11.803Z,29.87
2023-01-17T17:54:38.618Z,27.03
2023-01-17T17:57:06.574Z,27.53
2023-01-17T17:59:33.578Z,26.40
2023-01-17T18:02:00.377Z,35.23
2023-01-17T18:04:27.577Z,27.37
2023-01-17T18:06:58.385Z,30.97
2023-01-17T18:09:25.369Z,28.80
2023-01-17T18:11:52.434Z,29.83
2023-01-17T18:14:22.173Z,28.83
2023-01-17T18:16:49.041Z,32.93
2023-01-17T18:19:22.143Z,37.20
2023-01-17T18:21:50.456Z,34.47
2023-01-17T18:24:22.771Z,43.53
2023-01-17T18:26:56.026Z,35.73
2023-01-17T18:29:23.945Z,36.20
2023-01-17T18:31:51.847Z,38.73
2023-01-17T18:34:23.958Z,36.50
2023-01-17T18:36:51.533Z,37.67
2023-01-17T18:39:26.872Z,38.57
2023-01-17T18:41:54.795Z,37.20
2023-01-17T18:44:22.630Z,37.33
2023-01-17T18:46:50.935Z,39.40
2023-01-17T18:49:20.958Z,38.93
2023-01-17T18:51:50.944Z,38.20
2023-01-17T18:54:19.936Z,38.77
2023-01-17T18:56:47.196Z,35.30
2023-01-17T18:59:18.157Z,37.70
2023-01-17T19:01:45.599Z,37.17
2023-01-17T19:04:14.714Z,39.60
2023-01-17T19:06:43.851Z,37.80
2023-01-17T19:09:12.464Z,42.10
2023-01-17T19:11:39.911Z,38.03
2023-01-17T19:14:07.404Z,40.73
2023-01-17T19:16:39.183Z,36.80
2023-01-17T19:19:08.669Z,39.73
2023-01-17T19:21:36.025Z,41.80
2023-01-17T19:24:03.797Z,42.83
2023-01-17T19:26:30.889Z,46.67
2023-01-17T19:29:03.763Z,41.37
2023-01-17T19:31:32.592Z,41.23
2023-01-17T19:34:00.175Z,42.70
2023-01-17T19:36:31.629Z,40.63
2023-01-17T19:39:04.974Z,42.17
2023-01-17T19:41:34.918Z,39.20
2023-01-17T19:44:06.232Z,47.40
2023-01-17T19:46:33.838Z,46.67
2023-01-17T19:49:01.126Z,45.70
2023-01-17T19:51:28.828Z,43.53
2023-01-17T19:53:56.785Z,48.47
2023-01-17T19:56:25.858Z,48.97
2023-01-17T19:58:53.455Z,44.60
2023-01-17T20:01:28.450Z,43.23
2023-01-17T20:03:58.152Z,48.60
2023-01-17T20:06:29.009Z,47.17
2023-01-17T20:08:56.401Z,45.67
2023-01-17T20:11:25.091Z,47.60
2023-01-17T20:13:54.660Z,46.20
2023-01-17T20:16:22.820Z,45.60
2023-01-17T20:18:50.140Z,44.67
2023-01-17T20:21:20.007Z,46.90
2023-01-17T20:23:48.517Z,47.63
2023-01-17T20:26:36.152Z,46.03
2023-01-17T20:29:21.234Z,45.07
2023-01-17T20:31:52.529Z,42.97
2023-01-17T20:34:20.132Z,42.30
2023-01-17T20:36:50.036Z,40.97
2023-01-17T20:39:17.010Z,42.43
2023-01-17T20:41:46.464Z,43.07
2023-01-17T20:44:15.379Z,45.00
2023-01-17T20:46:43.319Z,43.63
2023-01-17T20:49:16.086Z,44.47
2023-01-17T20:51:44.643Z,43.17
2023-01-17T20:54:23.487Z,44.10
2023-01-17T20:56:51.485Z,43.47
2023-01-17T20:59:21.762Z,43.20
2023-01-17T21:01:49.662Z,40.33
2023-01-17T21:05:03.796Z,43.80
2023-01-17T21:07:30.652Z,43.90
2023-01-17T21:09:57.536Z,46.03
2023-01-17T21:12:24.530Z,44.97
2023-01-17T21:14:51.368Z,43.77
2023-01-17T21:17:19.350Z,42.73
2023-01-17T21:19:46.655Z,44.80
2023-01-17T21:22:16.706Z,44.40
2023-01-17T21:24:43.581Z,41.63
2023-01-17T21:27:12.368Z,44.83
2023-01-17T21:29:39.241Z,47.23
2023-01-17T21:32:06.356Z,46.83
2023-01-17T21:34:34.686Z,45.00
2023-01-17T21:37:01.604Z,49.30
2023-01-17T21:39:29.381Z,44.00
2023-01-17T21:41:56.244Z,45.27
2023-01-17T21:44:23.493Z,44.53
2023-01-17T21:46:56.177Z,47.83
2023-01-17T21:49:23.837Z,49.27
2023-01-17T21:51:53.457Z,45.70
2023-01-17T21:54:44.472Z,47.33
2023-01-17T21:57:31.388Z,48.20
2023-01-17T21:59:58.224Z,48.87
2023-01-17T22:02:25.181Z,48.47
2023-01-17T22:04:52.157Z,48.33
2023-01-17T22:07:19.184Z,53.47
2023-01-17T22:09:46.194Z,50.83
2023-01-17T22:12:13.076Z,47.90
2023-01-17T22:14:40.029Z,51.90
2023-01-17T22:17:08.614Z,49.40
2023-01-17T22:19:35.467Z,49.13
2023-01-17T22:22:02.619Z,51.77
2023-01-17T22:24:29.419Z,52.90
2023-01-17T22:26:56.266Z,55.73
2023-01-17T22:29:23.274Z,58.43
2023-01-17T22:31:50.299Z,57.43
2023-01-17T22:34:19.012Z,56.57
2023-01-17T22:36:46.071Z,58.10
2023-01-17T22:39:13.094Z,57.53
2023-01-17T22:41:40.041Z,55.97
2023-01-17T22:44:07.611Z,61.63
2023-01-17T22:46:38.446Z,56.90
2023-01-17T22:49:07.695Z,59.47
2023-01-17T22:51:35.159Z,56.70
2023-01-17T22:54:02.106Z,57.80
2023-01-17T22:56:31.521Z,57.13
2023-01-17T22:59:00.800Z,58.67
2023-01-17T23:01:32.824Z,61.87
2023-01-17T23:04:02.563Z,55.63
2023-01-17T23:06:38.116Z,55.77
2023-01-17T23:09:11.536Z,59.23
2023-01-17T23:11:49.801Z,59.17
2023-01-17T23:14:19.543Z,54.83
2023-01-17T23:17:10.561Z,59.57
2023-01-17T23:19:49.426Z,60.87
2023-01-17T23:22:22.216Z,60.77
2023-01-17T23:24:50.956Z,59.87
2023-01-17T23:27:56.144Z,61.50
2023-01-17T23:30:50.320Z,62.37
2023-01-17T23:33:18.034Z,56.03
2023-01-17T23:35:48.764Z,59.47
2023-01-17T23:38:25.980Z,60.77
2023-01-17T23:41:17.451Z,57.73
2023-01-17T23:43:44.476Z,57.23
2023-01-17T23:46:12.595Z,52.73
2023-01-17T23:48:39.599Z,56.67
2023-01-17T23:51:09.211Z,56.00
2023-01-17T23:53:39.829Z,57.93
2023-01-17T23:56:14.657Z,54.83
2023-01-17T23:58:41.716Z,55.57
